sensor_id;sensor_type;location;lat;lon;timestamp;P1;durP1;ratioP1;P2;durP2;ratioP2
52650;SDS011;38537;47.226;39.702;2022-12-17T00:02:10;18.23;;;11.60;;
52650;SDS011;38537;47.226;39.702;2022-12-17T00:04:56;21.65;;;12.55;;
52650;SDS011;38537;47.226;39.702;2022-12-17T00:07:41;18.77;;;12.00;;
52650;SDS011;38537;47.226;39.702;2022-12-17T00:13:17;16.83;;;10.90;;
52650;SDS011;38537;47.226;39.702;2022-12-17T00:16:05;17.65;;;11.93;;
52650;SDS011;38537;47.226;39.702;2022-12-17T00:18:51;19.83;;;11.40;;
52650;SDS011;38537;47.226;39.702;2022-12-17T00:21:37;20.85;;;12.40;;
52650;SDS011;38537;47.226;39.702;2022-12-17T00:24:23;21.58;;;11.75;;
52650;SDS011;38537;47.226;39.702;2022-12-17T00:27:09;250.82;;;17.35;;
52650;SDS011;38537;47.226;39.702;2022-12-17T00:29:54;34.67;;;11.52;;
52650;SDS011;38537;47.226;39.702;2022-12-17T00:32:41;32.25;;;10.65;;
52650;SDS011;38537;47.226;39.702;2022-12-17T00:35:26;14.30;;;9.25;;
52650;SDS011;38537;47.226;39.702;2022-12-17T00:38:16;13.55;;;8.45;;
52650;SDS011;38537;47.226;39.702;2022-12-17T00:41:11;12.35;;;7.47;;
52650;SDS011;38537;47.226;39.702;2022-12-17T00:44:01;10.35;;;6.68;;
52650;SDS011;38537;47.226;39.702;2022-12-17T00:46:47;10.40;;;6.85;;
52650;SDS011;38537;47.226;39.702;2022-12-17T00:49:34;7.57;;;5.43;;
52650;SDS011;38537;47.226;39.702;2022-12-17T00:52:23;12.02;;;6.20;;
52650;SDS011;38537;47.226;39.702;2022-12-17T00:55:09;8.00;;;5.40;;
52650;SDS011;38537;47.226;39.702;2022-12-17T00:57:55;7.68;;;5.10;;
52650;SDS011;38537;47.226;39.702;2022-12-17T01:00:41;15.02;;;6.32;;
52650;SDS011;38537;47.226;39.702;2022-12-17T01:03:28;7.72;;;5.35;;
52650;SDS011;38537;47.226;39.702;2022-12-17T01:06:13;8.20;;;5.53;;
52650;SDS011;38537;47.226;39.702;2022-12-17T01:09:00;187.13;;;12.13;;
52650;SDS011;38537;47.226;39.702;2022-12-17T01:11:46;10.75;;;7.05;;
52650;SDS011;38537;47.226;39.702;2022-12-17T01:14:32;10.18;;;6.45;;
52650;SDS011;38537;47.226;39.702;2022-12-17T01:17:17;100.78;;;11.30;;
52650;SDS011;38537;47.226;39.702;2022-12-17T01:20:03;41.40;;;10.60;;
52650;SDS011;38537;47.226;39.702;2022-12-17T01:22:49;16.75;;;8.70;;
52650;SDS011;38537;47.226;39.702;2022-12-17T01:25:34;23.35;;;9.35;;
52650;SDS011;38537;47.226;39.702;2022-12-17T01:28:22;76.72;;;13.13;;
52650;SDS011;38537;47.226;39.702;2022-12-17T01:31:09;21.10;;;10.45;;
52650;SDS011;38537;47.226;39.702;2022-12-17T01:34:01;357.02;;;21.73;;
52650;SDS011;38537;47.226;39.702;2022-12-17T01:36:46;18.70;;;10.70;;
52650;SDS011;38537;47.226;39.702;2022-12-17T01:39:32;103.93;;;13.18;;
52650;SDS011;38537;47.226;39.702;2022-12-17T01:42:18;20.83;;;11.07;;
52650;SDS011;38537;47.226;39.702;2022-12-17T01:45:07;181.23;;;32.10;;
52650;SDS011;38537;47.226;39.702;2022-12-17T01:48:02;91.95;;;34.13;;
52650;SDS011;38537;47.226;39.702;2022-12-17T01:50:53;93.22;;;37.65;;
52650;SDS011;38537;47.226;39.702;2022-12-17T01:53:42;74.60;;;30.60;;
52650;SDS011;38537;47.226;39.702;2022-12-17T01:56:32;182.35;;;40.55;;
52650;SDS011;38537;47.226;39.702;2022-12-17T01:59:23;145.45;;;26.48;;
52650;SDS011;38537;47.226;39.702;2022-12-17T02:02:17;32.72;;;18.55;;
52650;SDS011;38537;47.226;39.702;2022-12-17T02:05:02;55.85;;;18.02;;
52650;SDS011;38537;47.226;39.702;2022-12-17T02:07:52;21.05;;;14.77;;
52650;SDS011;38537;47.226;39.702;2022-12-17T02:13:41;26.35;;;10.82;;
52650;SDS011;38537;47.226;39.702;2022-12-17T02:16:42;12.48;;;8.48;;
52650;SDS011;38537;47.226;39.702;2022-12-17T02:22:55;12.52;;;8.48;;
52650;SDS011;38537;47.226;39.702;2022-12-17T02:29:14;12.80;;;8.10;;
52650;SDS011;38537;47.226;39.702;2022-12-17T02:32:02;12.20;;;7.38;;
52650;SDS011;38537;47.226;39.702;2022-12-17T02:34:51;11.40;;;7.30;;
52650;SDS011;38537;47.226;39.702;2022-12-17T02:37:37;10.75;;;7.15;;
52650;SDS011;38537;47.226;39.702;2022-12-17T02:40:23;12.18;;;7.45;;
52650;SDS011;38537;47.226;39.702;2022-12-17T02:43:10;11.30;;;7.10;;
52650;SDS011;38537;47.226;39.702;2022-12-17T02:45:56;10.98;;;7.15;;
52650;SDS011;38537;47.226;39.702;2022-12-17T02:48:43;9.82;;;6.60;;
52650;SDS011;38537;47.226;39.702;2022-12-17T02:51:30;9.45;;;6.80;;
52650;SDS011;38537;47.226;39.702;2022-12-17T02:54:16;10.13;;;6.82;;
52650;SDS011;38537;47.226;39.702;2022-12-17T02:57:03;10.18;;;6.72;;
52650;SDS011;38537;47.226;39.702;2022-12-17T02:59:49;9.65;;;6.53;;
52650;SDS011;38537;47.226;39.702;2022-12-17T03:02:35;9.57;;;6.40;;
52650;SDS011;38537;47.226;39.702;2022-12-17T03:05:21;8.63;;;6.00;;
52650;SDS011;38537;47.226;39.702;2022-12-17T03:08:12;8.70;;;6.40;;
52650;SDS011;38537;47.226;39.702;2022-12-17T03:10:58;9.52;;;6.20;;
52650;SDS011;38537;47.226;39.702;2022-12-17T03:16:50;8.75;;;6.32;;
52650;SDS011;38537;47.226;39.702;2022-12-17T03:19:36;10.38;;;6.68;;
52650;SDS011;38537;47.226;39.702;2022-12-17T03:22:22;10.38;;;6.72;;
52650;SDS011;38537;47.226;39.702;2022-12-17T03:25:08;10.32;;;7.00;;
52650;SDS011;38537;47.226;39.702;2022-12-17T03:27:53;10.02;;;6.57;;
52650;SDS011;38537;47.226;39.702;2022-12-17T03:30:40;9.45;;;6.63;;
52650;SDS011;38537;47.226;39.702;2022-12-17T03:33:28;8.98;;;6.57;;
52650;SDS011;38537;47.226;39.702;2022-12-17T03:36:17;9.13;;;6.03;;
52650;SDS011;38537;47.226;39.702;2022-12-17T03:39:02;8.38;;;6.05;;
52650;SDS011;38537;47.226;39.702;2022-12-17T03:41:48;9.45;;;6.25;;
52650;SDS011;38537;47.226;39.702;2022-12-17T03:44:34;9.80;;;6.10;;
52650;SDS011;38537;47.226;39.702;2022-12-17T03:47:20;13.80;;;8.68;;
52650;SDS011;38537;47.226;39.702;2022-12-17T03:50:06;9.80;;;6.28;;
52650;SDS011;38537;47.226;39.702;2022-12-17T03:52:52;12.55;;;7.97;;
52650;SDS011;38537;47.226;39.702;2022-12-17T03:55:38;10.07;;;6.22;;
52650;SDS011;38537;47.226;39.702;2022-12-17T03:58:23;13.55;;;8.48;;
52650;SDS011;38537;47.226;39.702;2022-12-17T04:01:09;10.63;;;7.00;;
52650;SDS011;38537;47.226;39.702;2022-12-17T04:03:55;14.32;;;8.57;;
52650;SDS011;38537;47.226;39.702;2022-12-17T04:06:40;11.05;;;6.55;;
52650;SDS011;38537;47.226;39.702;2022-12-17T04:09:25;9.88;;;6.88;;
52650;SDS011;38537;47.226;39.702;2022-12-17T04:12:11;13.25;;;8.48;;
52650;SDS011;38537;47.226;39.702;2022-12-17T04:14:57;11.00;;;7.50;;
52650;SDS011;38537;47.226;39.702;2022-12-17T04:17:42;9.88;;;6.47;;
52650;SDS011;38537;47.226;39.702;2022-12-17T04:20:28;8.75;;;6.07;;
52650;SDS011;38537;47.226;39.702;2022-12-17T04:23:14;10.20;;;6.68;;
52650;SDS011;38537;47.226;39.702;2022-12-17T04:26:01;11.65;;;7.60;;
52650;SDS011;38537;47.226;39.702;2022-12-17T04:28:46;18.73;;;8.57;;
52650;SDS011;38537;47.226;39.702;2022-12-17T04:31:33;10.18;;;6.43;;
52650;SDS011;38537;47.226;39.702;2022-12-17T04:34:19;10.98;;;7.43;;
52650;SDS011;38537;47.226;39.702;2022-12-17T04:37:05;12.82;;;7.95;;
52650;SDS011;38537;47.226;39.702;2022-12-17T04:39:51;8.63;;;6.47;;
52650;SDS011;38537;47.226;39.702;2022-12-17T04:42:36;10.07;;;6.70;;
52650;SDS011;38537;47.226;39.702;2022-12-17T04:45:22;9.38;;;6.32;;
52650;SDS011;38537;47.226;39.702;2022-12-17T04:48:08;8.35;;;6.07;;
52650;SDS011;38537;47.226;39.702;2022-12-17T04:50:53;8.88;;;6.20;;
52650;SDS011;38537;47.226;39.702;2022-12-17T04:53:39;7.95;;;6.00;;
52650;SDS011;38537;47.226;39.702;2022-12-17T04:56:25;8.45;;;6.10;;
52650;SDS011;38537;47.226;39.702;2022-12-17T04:59:10;10.07;;;6.63;;
52650;SDS011;38537;47.226;39.702;2022-12-17T05:01:56;10.95;;;7.40;;
52650;SDS011;38537;47.226;39.702;2022-12-17T05:04:42;11.45;;;7.55;;
52650;SDS011;38537;47.226;39.702;2022-12-17T05:07:29;12.45;;;7.47;;
52650;SDS011;38537;47.226;39.702;2022-12-17T05:10:14;12.48;;;7.82;;
52650;SDS011;38537;47.226;39.702;2022-12-17T05:13:00;11.88;;;8.15;;
52650;SDS011;38537;47.226;39.702;2022-12-17T05:15:46;13.15;;;8.82;;
52650;SDS011;38537;47.226;39.702;2022-12-17T05:18:32;14.38;;;9.07;;
52650;SDS011;38537;47.226;39.702;2022-12-17T05:21:18;13.98;;;8.65;;
52650;SDS011;38537;47.226;39.702;2022-12-17T05:24:04;12.75;;;8.57;;
52650;SDS011;38537;47.226;39.702;2022-12-17T05:26:50;11.48;;;8.25;;
52650;SDS011;38537;47.226;39.702;2022-12-17T05:29:35;11.48;;;7.85;;
52650;SDS011;38537;47.226;39.702;2022-12-17T05:32:21;12.38;;;8.63;;
52650;SDS011;38537;47.226;39.702;2022-12-17T05:35:06;13.80;;;8.70;;
52650;SDS011;38537;47.226;39.702;2022-12-17T05:37:53;12.30;;;8.43;;
52650;SDS011;38537;47.226;39.702;2022-12-17T05:40:39;12.68;;;8.23;;
52650;SDS011;38537;47.226;39.702;2022-12-17T05:43:25;13.25;;;8.77;;
52650;SDS011;38537;47.226;39.702;2022-12-17T05:46:11;11.98;;;8.27;;
52650;SDS011;38537;47.226;39.702;2022-12-17T05:48:56;13.32;;;9.25;;
52650;SDS011;38537;47.226;39.702;2022-12-17T05:51:42;13.07;;;8.80;;
52650;SDS011;38537;47.226;39.702;2022-12-17T05:54:28;13.23;;;9.52;;
52650;SDS011;38537;47.226;39.702;2022-12-17T05:57:13;14.48;;;9.18;;
52650;SDS011;38537;47.226;39.702;2022-12-17T05:59:59;13.02;;;9.13;;
52650;SDS011;38537;47.226;39.702;2022-12-17T06:02:44;12.68;;;9.02;;
52650;SDS011;38537;47.226;39.702;2022-12-17T06:05:30;13.60;;;8.90;;
52650;SDS011;38537;47.226;39.702;2022-12-17T06:08:16;13.65;;;9.65;;
52650;SDS011;38537;47.226;39.702;2022-12-17T06:11:02;14.73;;;8.88;;
52650;SDS011;38537;47.226;39.702;2022-12-17T06:13:47;13.52;;;9.48;;
52650;SDS011;38537;47.226;39.702;2022-12-17T06:16:33;14.30;;;9.63;;
52650;SDS011;38537;47.226;39.702;2022-12-17T06:19:19;14.05;;;9.75;;
52650;SDS011;38537;47.226;39.702;2022-12-17T06:22:05;13.63;;;9.07;;
52650;SDS011;38537;47.226;39.702;2022-12-17T06:24:51;15.68;;;9.68;;
52650;SDS011;38537;47.226;39.702;2022-12-17T06:27:38;14.05;;;9.60;;
52650;SDS011;38537;47.226;39.702;2022-12-17T06:30:24;13.70;;;9.48;;
52650;SDS011;38537;47.226;39.702;2022-12-17T06:33:10;13.60;;;9.68;;
52650;SDS011;38537;47.226;39.702;2022-12-17T06:35:56;14.98;;;10.32;;
52650;SDS011;38537;47.226;39.702;2022-12-17T06:38:47;12.77;;;8.93;;
52650;SDS011;38537;47.226;39.702;2022-12-17T06:41:33;15.75;;;10.30;;
52650;SDS011;38537;47.226;39.702;2022-12-17T06:44:27;14.57;;;9.70;;
52650;SDS011;38537;47.226;39.702;2022-12-17T06:47:13;12.60;;;9.32;;
52650;SDS011;38537;47.226;39.702;2022-12-17T06:49:59;16.48;;;9.52;;
52650;SDS011;38537;47.226;39.702;2022-12-17T06:52:45;14.23;;;9.95;;
52650;SDS011;38537;47.226;39.702;2022-12-17T06:55:31;14.75;;;9.52;;
52650;SDS011;38537;47.226;39.702;2022-12-17T06:58:16;14.02;;;10.02;;
52650;SDS011;38537;47.226;39.702;2022-12-17T07:01:02;14.35;;;10.40;;
52650;SDS011;38537;47.226;39.702;2022-12-17T07:03:56;15.30;;;10.57;;
52650;SDS011;38537;47.226;39.702;2022-12-17T07:06:41;15.70;;;10.95;;
52650;SDS011;38537;47.226;39.702;2022-12-17T07:09:27;15.27;;;11.10;;
52650;SDS011;38537;47.226;39.702;2022-12-17T07:12:13;15.82;;;10.63;;
52650;SDS011;38537;47.226;39.702;2022-12-17T07:14:59;14.20;;;10.38;;
52650;SDS011;38537;47.226;39.702;2022-12-17T07:17:55;15.05;;;10.57;;
52650;SDS011;38537;47.226;39.702;2022-12-17T07:20:42;14.25;;;9.93;;
52650;SDS011;38537;47.226;39.702;2022-12-17T07:23:31;15.07;;;10.48;;
52650;SDS011;38537;47.226;39.702;2022-12-17T07:26:17;14.73;;;10.57;;
52650;SDS011;38537;47.226;39.702;2022-12-17T07:29:02;16.60;;;11.30;;
52650;SDS011;38537;47.226;39.702;2022-12-17T07:31:48;14.60;;;10.27;;
52650;SDS011;38537;47.226;39.702;2022-12-17T07:34:34;14.90;;;10.68;;
52650;SDS011;38537;47.226;39.702;2022-12-17T07:37:19;14.52;;;10.90;;
52650;SDS011;38537;47.226;39.702;2022-12-17T07:40:05;14.75;;;10.48;;
52650;SDS011;38537;47.226;39.702;2022-12-17T07:42:52;15.45;;;11.10;;
52650;SDS011;38537;47.226;39.702;2022-12-17T07:45:38;15.05;;;10.88;;
52650;SDS011;38537;47.226;39.702;2022-12-17T07:48:24;15.70;;;10.68;;
52650;SDS011;38537;47.226;39.702;2022-12-17T07:51:09;15.85;;;11.07;;
52650;SDS011;38537;47.226;39.702;2022-12-17T07:53:55;15.55;;;10.98;;
52650;SDS011;38537;47.226;39.702;2022-12-17T07:56:41;15.85;;;11.00;;
52650;SDS011;38537;47.226;39.702;2022-12-17T07:59:27;15.55;;;11.13;;
52650;SDS011;38537;47.226;39.702;2022-12-17T08:02:13;14.75;;;10.95;;
52650;SDS011;38537;47.226;39.702;2022-12-17T08:04:59;16.10;;;11.70;;
52650;SDS011;38537;47.226;39.702;2022-12-17T08:07:45;16.25;;;11.32;;
52650;SDS011;38537;47.226;39.702;2022-12-17T08:10:30;15.50;;;10.63;;
52650;SDS011;38537;47.226;39.702;2022-12-17T08:13:16;17.45;;;12.18;;
52650;SDS011;38537;47.226;39.702;2022-12-17T08:16:02;15.95;;;11.13;;
52650;SDS011;38537;47.226;39.702;2022-12-17T08:18:48;15.15;;;11.13;;
52650;SDS011;38537;47.226;39.702;2022-12-17T08:21:33;20.00;;;13.15;;
52650;SDS011;38537;47.226;39.702;2022-12-17T08:24:19;19.58;;;13.07;;
52650;SDS011;38537;47.226;39.702;2022-12-17T08:27:04;21.20;;;12.65;;
52650;SDS011;38537;47.226;39.702;2022-12-17T08:29:50;19.00;;;13.15;;
52650;SDS011;38537;47.226;39.702;2022-12-17T08:32:36;15.98;;;10.43;;
52650;SDS011;38537;47.226;39.702;2022-12-17T08:35:21;16.48;;;10.73;;
52650;SDS011;38537;47.226;39.702;2022-12-17T08:38:07;15.85;;;10.57;;
52650;SDS011;38537;47.226;39.702;2022-12-17T08:40:54;18.55;;;10.93;;
52650;SDS011;38537;47.226;39.702;2022-12-17T08:43:41;16.95;;;11.95;;
52650;SDS011;38537;47.226;39.702;2022-12-17T08:46:27;18.52;;;12.88;;
52650;SDS011;38537;47.226;39.702;2022-12-17T08:49:13;18.30;;;12.68;;
52650;SDS011;38537;47.226;39.702;2022-12-17T08:51:58;20.13;;;13.32;;
52650;SDS011;38537;47.226;39.702;2022-12-17T08:54:44;21.15;;;14.35;;
52650;SDS011;38537;47.226;39.702;2022-12-17T08:57:30;19.33;;;12.95;;
52650;SDS011;38537;47.226;39.702;2022-12-17T09:00:16;23.27;;;14.27;;
52650;SDS011;38537;47.226;39.702;2022-12-17T09:03:02;20.85;;;12.38;;
52650;SDS011;38537;47.226;39.702;2022-12-17T09:05:50;20.92;;;13.95;;
52650;SDS011;38537;47.226;39.702;2022-12-17T09:08:37;21.05;;;14.70;;
52650;SDS011;38537;47.226;39.702;2022-12-17T09:11:23;19.13;;;13.00;;
52650;SDS011;38537;47.226;39.702;2022-12-17T09:14:11;17.55;;;11.65;;
52650;SDS011;38537;47.226;39.702;2022-12-17T09:16:56;20.40;;;13.35;;
52650;SDS011;38537;47.226;39.702;2022-12-17T09:19:42;17.27;;;12.25;;
52650;SDS011;38537;47.226;39.702;2022-12-17T09:22:28;18.65;;;12.93;;
52650;SDS011;38537;47.226;39.702;2022-12-17T09:25:14;22.20;;;14.13;;
52650;SDS011;38537;47.226;39.702;2022-12-17T09:28:00;19.50;;;13.40;;
52650;SDS011;38537;47.226;39.702;2022-12-17T09:30:46;19.35;;;13.38;;
52650;SDS011;38537;47.226;39.702;2022-12-17T09:33:33;19.83;;;12.60;;
52650;SDS011;38537;47.226;39.702;2022-12-17T09:36:19;19.67;;;13.57;;
52650;SDS011;38537;47.226;39.702;2022-12-17T09:39:05;19.55;;;13.65;;
52650;SDS011;38537;47.226;39.702;2022-12-17T09:50:36;19.20;;;12.75;;
52650;SDS011;38537;47.226;39.702;2022-12-17T09:53:25;21.90;;;13.98;;
52650;SDS011;38537;47.226;39.702;2022-12-17T09:56:16;20.83;;;14.30;;
52650;SDS011;38537;47.226;39.702;2022-12-17T09:59:06;19.02;;;13.07;;
52650;SDS011;38537;47.226;39.702;2022-12-17T10:02:02;20.95;;;14.20;;
52650;SDS011;38537;47.226;39.702;2022-12-17T10:04:56;16.02;;;12.02;;
52650;SDS011;38537;47.226;39.702;2022-12-17T10:07:44;20.80;;;14.57;;
52650;SDS011;38537;47.226;39.702;2022-12-17T10:10:32;21.73;;;14.85;;
52650;SDS011;38537;47.226;39.702;2022-12-17T10:13:20;21.38;;;13.98;;
52650;SDS011;38537;47.226;39.702;2022-12-17T10:16:30;21.30;;;13.45;;
52650;SDS011;38537;47.226;39.702;2022-12-17T10:19:20;23.85;;;14.05;;
52650;SDS011;38537;47.226;39.702;2022-12-17T10:22:14;19.52;;;13.00;;
52650;SDS011;38537;47.226;39.702;2022-12-17T10:25:13;21.70;;;13.77;;
52650;SDS011;38537;47.226;39.702;2022-12-17T10:28:09;22.13;;;14.83;;
52650;SDS011;38537;47.226;39.702;2022-12-17T10:30:57;19.52;;;12.88;;
52650;SDS011;38537;47.226;39.702;2022-12-17T10:33:45;21.85;;;12.60;;
52650;SDS011;38537;47.226;39.702;2022-12-17T10:36:31;19.40;;;13.48;;
52650;SDS011;38537;47.226;39.702;2022-12-17T10:39:22;21.15;;;13.77;;
52650;SDS011;38537;47.226;39.702;2022-12-17T10:42:23;22.38;;;14.35;;
52650;SDS011;38537;47.226;39.702;2022-12-17T10:45:23;20.10;;;14.02;;
52650;SDS011;38537;47.226;39.702;2022-12-17T10:48:23;20.27;;;13.60;;
52650;SDS011;38537;47.226;39.702;2022-12-17T10:57:36;19.00;;;13.60;;
52650;SDS011;38537;47.226;39.702;2022-12-17T11:00:23;18.05;;;11.73;;
52650;SDS011;38537;47.226;39.702;2022-12-17T11:06:44;16.25;;;11.43;;
52650;SDS011;38537;47.226;39.702;2022-12-17T11:09:31;19.25;;;13.30;;
52650;SDS011;38537;47.226;39.702;2022-12-17T11:12:19;18.80;;;12.20;;
52650;SDS011;38537;47.226;39.702;2022-12-17T11:15:32;19.77;;;12.88;;
52650;SDS011;38537;47.226;39.702;2022-12-17T11:18:20;20.30;;;14.02;;
52650;SDS011;38537;47.226;39.702;2022-12-17T11:21:18;21.70;;;13.10;;
52650;SDS011;38537;47.226;39.702;2022-12-17T11:24:11;17.33;;;12.20;;
52650;SDS011;38537;47.226;39.702;2022-12-17T11:27:01;21.30;;;12.95;;
52650;SDS011;38537;47.226;39.702;2022-12-17T11:29:51;19.10;;;13.50;;
52650;SDS011;38537;47.226;39.702;2022-12-17T11:41:33;21.05;;;13.05;;
52650;SDS011;38537;47.226;39.702;2022-12-17T11:47:24;19.67;;;13.23;;
52650;SDS011;38537;47.226;39.702;2022-12-17T11:50:49;18.73;;;12.88;;
52650;SDS011;38537;47.226;39.702;2022-12-17T11:53:53;19.05;;;12.35;;
52650;SDS011;38537;47.226;39.702;2022-12-17T11:56:51;19.25;;;13.02;;
52650;SDS011;38537;47.226;39.702;2022-12-17T12:00:12;16.35;;;11.57;;
52650;SDS011;38537;47.226;39.702;2022-12-17T12:06:16;17.88;;;11.98;;
52650;SDS011;38537;47.226;39.702;2022-12-17T12:09:15;18.88;;;12.25;;
52650;SDS011;38537;47.226;39.702;2022-12-17T12:21:50;14.90;;;9.85;;
52650;SDS011;38537;47.226;39.702;2022-12-17T12:25:15;12.13;;;8.88;;
52650;SDS011;38537;47.226;39.702;2022-12-17T12:28:41;12.50;;;8.52;;
52650;SDS011;38537;47.226;39.702;2022-12-17T12:34:27;13.10;;;8.50;;
52650;SDS011;38537;47.226;39.702;2022-12-17T12:37:16;11.50;;;8.27;;
52650;SDS011;38537;47.226;39.702;2022-12-17T12:51:57;12.02;;;8.32;;
52650;SDS011;38537;47.226;39.702;2022-12-17T12:57:42;12.32;;;8.73;;
52650;SDS011;38537;47.226;39.702;2022-12-17T13:03:35;12.32;;;8.88;;
52650;SDS011;38537;47.226;39.702;2022-12-17T13:17:26;14.18;;;8.77;;
52650;SDS011;38537;47.226;39.702;2022-12-17T13:22:31;12.23;;;8.82;;
52650;SDS011;38537;47.226;39.702;2022-12-17T13:25:14;15.25;;;10.48;;
52650;SDS011;38537;47.226;39.702;2022-12-17T13:27:43;11.65;;;8.77;;
52650;SDS011;38537;47.226;39.702;2022-12-17T13:32:46;12.23;;;8.00;;
52650;SDS011;38537;47.226;39.702;2022-12-17T13:38:26;10.35;;;7.60;;
52650;SDS011;38537;47.226;39.702;2022-12-17T13:43:49;8.95;;;7.07;;
52650;SDS011;38537;47.226;39.702;2022-12-17T13:46:26;8.95;;;7.10;;
52650;SDS011;38537;47.226;39.702;2022-12-17T13:51:44;8.85;;;6.97;;
52650;SDS011;38537;47.226;39.702;2022-12-17T13:54:18;9.13;;;6.78;;
52650;SDS011;38537;47.226;39.702;2022-12-17T13:56:45;8.52;;;6.47;;
52650;SDS011;38537;47.226;39.702;2022-12-17T13:59:18;9.75;;;7.22;;
52650;SDS011;38537;47.226;39.702;2022-12-17T14:01:47;10.27;;;7.65;;
52650;SDS011;38537;47.226;39.702;2022-12-17T14:06:52;9.30;;;7.22;;
52650;SDS011;38537;47.226;39.702;2022-12-17T14:09:27;11.88;;;8.15;;
52650;SDS011;38537;47.226;39.702;2022-12-17T14:12:00;11.52;;;8.27;;
52650;SDS011;38537;47.226;39.702;2022-12-17T14:14:54;11.45;;;8.40;;
52650;SDS011;38537;47.226;39.702;2022-12-17T14:17:39;11.07;;;9.02;;
52650;SDS011;38537;47.226;39.702;2022-12-17T14:20:21;11.25;;;8.48;;
52650;SDS011;38537;47.226;39.702;2022-12-17T14:22:54;11.43;;;8.95;;
52650;SDS011;38537;47.226;39.702;2022-12-17T14:25:32;10.85;;;8.30;;
52650;SDS011;38537;47.226;39.702;2022-12-17T14:30:49;12.68;;;9.02;;
52650;SDS011;38537;47.226;39.702;2022-12-17T14:33:37;11.63;;;8.52;;
52650;SDS011;38537;47.226;39.702;2022-12-17T14:36:05;14.48;;;9.02;;
52650;SDS011;38537;47.226;39.702;2022-12-17T14:38:35;10.40;;;8.77;;
52650;SDS011;38537;47.226;39.702;2022-12-17T14:41:14;12.10;;;8.65;;
52650;SDS011;38537;47.226;39.702;2022-12-17T14:44:00;13.65;;;8.85;;
52650;SDS011;38537;47.226;39.702;2022-12-17T14:46:30;12.38;;;8.52;;
52650;SDS011;38537;47.226;39.702;2022-12-17T14:49:00;11.13;;;8.48;;
52650;SDS011;38537;47.226;39.702;2022-12-17T14:51:33;13.13;;;8.70;;
52650;SDS011;38537;47.226;39.702;2022-12-17T14:56:41;11.13;;;8.40;;
52650;SDS011;38537;47.226;39.702;2022-12-17T15:01:56;12.48;;;8.40;;
52650;SDS011;38537;47.226;39.702;2022-12-17T15:04:29;13.15;;;9.13;;
52650;SDS011;38537;47.226;39.702;2022-12-17T15:06:58;12.15;;;8.98;;
52650;SDS011;38537;47.226;39.702;2022-12-17T15:09:26;11.80;;;8.70;;
52650;SDS011;38537;47.226;39.702;2022-12-17T15:11:54;12.57;;;8.63;;
52650;SDS011;38537;47.226;39.702;2022-12-17T15:14:21;12.88;;;9.02;;
52650;SDS011;38537;47.226;39.702;2022-12-17T15:16:48;12.18;;;8.73;;
52650;SDS011;38537;47.226;39.702;2022-12-17T15:19:16;11.45;;;8.63;;
52650;SDS011;38537;47.226;39.702;2022-12-17T15:21:43;14.20;;;8.65;;
52650;SDS011;38537;47.226;39.702;2022-12-17T15:24:18;11.63;;;8.43;;
52650;SDS011;38537;47.226;39.702;2022-12-17T15:26:47;11.07;;;8.13;;
52650;SDS011;38537;47.226;39.702;2022-12-17T15:29:15;11.63;;;7.88;;
52650;SDS011;38537;47.226;39.702;2022-12-17T15:31:42;10.75;;;7.93;;
52650;SDS011;38537;47.226;39.702;2022-12-17T15:34:10;11.18;;;7.55;;
52650;SDS011;38537;47.226;39.702;2022-12-17T15:36:38;12.00;;;8.10;;
52650;SDS011;38537;47.226;39.702;2022-12-17T15:39:06;10.57;;;7.72;;
52650;SDS011;38537;47.226;39.702;2022-12-17T15:41:34;14.45;;;9.27;;
52650;SDS011;38537;47.226;39.702;2022-12-17T15:44:19;12.63;;;8.88;;
52650;SDS011;38537;47.226;39.702;2022-12-17T15:46:46;12.15;;;8.95;;
52650;SDS011;38537;47.226;39.702;2022-12-17T15:49:15;12.77;;;9.45;;
52650;SDS011;38537;47.226;39.702;2022-12-17T15:51:42;12.15;;;9.05;;
52650;SDS011;38537;47.226;39.702;2022-12-17T15:54:09;13.60;;;9.93;;
52650;SDS011;38537;47.226;39.702;2022-12-17T15:56:37;14.25;;;9.77;;
52650;SDS011;38537;47.226;39.702;2022-12-17T15:59:05;14.30;;;9.43;;
52650;SDS011;38537;47.226;39.702;2022-12-17T16:01:32;12.40;;;9.25;;
52650;SDS011;38537;47.226;39.702;2022-12-17T16:04:01;12.70;;;9.25;;
52650;SDS011;38537;47.226;39.702;2022-12-17T16:06:28;11.10;;;8.32;;
52650;SDS011;38537;47.226;39.702;2022-12-17T16:08:55;14.38;;;9.35;;
52650;SDS011;38537;47.226;39.702;2022-12-17T16:11:23;12.10;;;8.70;;
52650;SDS011;38537;47.226;39.702;2022-12-17T16:13:54;12.98;;;8.32;;
52650;SDS011;38537;47.226;39.702;2022-12-17T16:16:22;10.77;;;7.95;;
52650;SDS011;38537;47.226;39.702;2022-12-17T16:18:49;10.85;;;7.97;;
52650;SDS011;38537;47.226;39.702;2022-12-17T16:21:18;11.50;;;8.45;;
52650;SDS011;38537;47.226;39.702;2022-12-17T16:23:45;12.85;;;8.60;;
52650;SDS011;38537;47.226;39.702;2022-12-17T16:26:12;13.30;;;9.10;;
52650;SDS011;38537;47.226;39.702;2022-12-17T16:28:42;13.75;;;9.15;;
52650;SDS011;38537;47.226;39.702;2022-12-17T16:31:12;12.52;;;9.13;;
52650;SDS011;38537;47.226;39.702;2022-12-17T16:33:42;13.13;;;8.65;;
52650;SDS011;38537;47.226;39.702;2022-12-17T16:36:12;13.20;;;9.50;;
52650;SDS011;38537;47.226;39.702;2022-12-17T16:38:48;12.57;;;9.13;;
52650;SDS011;38537;47.226;39.702;2022-12-17T16:41:21;12.63;;;9.00;;
52650;SDS011;38537;47.226;39.702;2022-12-17T16:43:49;12.05;;;8.85;;
52650;SDS011;38537;47.226;39.702;2022-12-17T16:49:09;15.55;;;10.00;;
52650;SDS011;38537;47.226;39.702;2022-12-17T16:51:52;11.48;;;8.55;;
52650;SDS011;38537;47.226;39.702;2022-12-17T16:56:52;14.23;;;9.35;;
52650;SDS011;38537;47.226;39.702;2022-12-17T16:59:20;13.98;;;9.55;;
52650;SDS011;38537;47.226;39.702;2022-12-17T17:01:48;13.82;;;9.90;;
52650;SDS011;38537;47.226;39.702;2022-12-17T17:04:16;13.05;;;9.43;;
52650;SDS011;38537;47.226;39.702;2022-12-17T17:06:50;15.98;;;9.88;;
52650;SDS011;38537;47.226;39.702;2022-12-17T17:09:19;15.90;;;10.07;;
52650;SDS011;38537;47.226;39.702;2022-12-17T17:11:47;14.88;;;10.45;;
52650;SDS011;38537;47.226;39.702;2022-12-17T17:14:18;14.63;;;10.02;;
52650;SDS011;38537;47.226;39.702;2022-12-17T17:16:54;13.95;;;10.25;;
52650;SDS011;38537;47.226;39.702;2022-12-17T17:19:21;15.40;;;10.10;;
52650;SDS011;38537;47.226;39.702;2022-12-17T17:21:52;14.48;;;10.85;;
52650;SDS011;38537;47.226;39.702;2022-12-17T17:24:21;14.32;;;9.90;;
52650;SDS011;38537;47.226;39.702;2022-12-17T17:26:50;16.50;;;10.73;;
52650;SDS011;38537;47.226;39.702;2022-12-17T17:29:18;14.27;;;10.80;;
52650;SDS011;38537;47.226;39.702;2022-12-17T17:31:45;14.15;;;10.90;;
52650;SDS011;38537;47.226;39.702;2022-12-17T17:34:36;14.57;;;10.25;;
52650;SDS011;38537;47.226;39.702;2022-12-17T17:37:04;14.95;;;10.60;;
52650;SDS011;38537;47.226;39.702;2022-12-17T17:39:32;16.95;;;11.52;;
52650;SDS011;38537;47.226;39.702;2022-12-17T17:42:00;16.45;;;11.30;;
52650;SDS011;38537;47.226;39.702;2022-12-17T17:44:28;16.75;;;11.23;;
52650;SDS011;38537;47.226;39.702;2022-12-17T17:46:55;18.38;;;11.18;;
52650;SDS011;38537;47.226;39.702;2022-12-17T17:49:23;17.52;;;11.52;;
52650;SDS011;38537;47.226;39.702;2022-12-17T17:51:50;15.02;;;10.85;;